sensor_id;sensor_type;location;lat;lon;timestamp;temperature;humidity
32534;DHT22;18973;48.580;8.912;2022-09-16T00:01:51;14.40;99.90
32534;DHT22;18973;48.580;8.912;2022-09-16T00:04:17;14.40;99.90
32534;DHT22;18973;48.580;8.912;2022-09-16T00:06:43;14.40;99.90
32534;DHT22;18973;48.580;8.912;2022-09-16T00:09:09;14.30;99.90
32534;DHT22;18973;48.580;8.912;2022-09-16T00:11:34;14.40;99.90
32534;DHT22;18973;48.580;8.912;2022-09-16T00:14:00;14.40;99.90
32534;DHT22;18973;48.580;8.912;2022-09-16T00:16:28;14.30;99.90
32534;DHT22;18973;48.580;8.912;2022-09-16T00:18:58;14.30;99.90
32534;DHT22;18973;48.580;8.912;2022-09-16T00:21:26;14.40;99.90
32534;DHT22;18973;48.580;8.912;2022-09-16T00:23:52;14.40;99.90
32534;DHT22;18973;48.580;8.912;2022-09-16T00:26:18;14.40;99.90
32534;DHT22;18973;48.580;8.912;2022-09-16T00:28:47;14.40;99.90
32534;DHT22;18973;48.580;8.912;2022-09-16T00:31:13;14.40;99.90
32534;DHT22;18973;48.580;8.912;2022-09-16T00:33:38;14.40;99.90
32534;DHT22;18973;48.580;8.912;2022-09-16T00:36:06;14.30;99.90
32534;DHT22;18973;48.580;8.912;2022-09-16T00:38:32;14.10;99.90
32534;DHT22;18973;48.580;8.912;2022-09-16T00:40:57;13.90;99.90
32534;DHT22;18973;48.580;8.912;2022-09-16T00:43:23;14.00;99.90
32534;DHT22;18973;48.580;8.912;2022-09-16T00:46:03;14.00;99.90
32534;DHT22;18973;48.580;8.912;2022-09-16T00:48:30;14.20;99.90
32534;DHT22;18973;48.580;8.912;2022-09-16T00:51:03;14.30;99.90
32534;DHT22;18973;48.580;8.912;2022-09-16T00:53:34;14.00;99.90
32534;DHT22;18973;48.580;8.912;2022-09-16T00:56:04;14.00;99.90
32534;DHT22;18973;48.580;8.912;2022-09-16T00:58:42;14.00;99.90
32534;DHT22;18973;48.580;8.912;2022-09-16T01:01:09;13.80;99.90
32534;DHT22;18973;48.580;8.912;2022-09-16T01:03:41;13.70;99.90
32534;DHT22;18973;48.580;8.912;2022-09-16T01:06:09;13.80;99.90
32534;DHT22;18973;48.580;8.912;2022-09-16T01:08:36;13.90;99.90
32534;DHT22;18973;48.580;8.912;2022-09-16T01:11:02;13.90;99.90
32534;DHT22;18973;48.580;8.912;2022-09-16T01:13:27;13.90;99.90
32534;DHT22;18973;48.580;8.912;2022-09-16T01:16:07;13.80;99.90
32534;DHT22;18973;48.580;8.912;2022-09-16T01:37:22;14.10;99.90
32534;DHT22;18973;48.580;8.912;2022-09-16T01:42:45;14.10;99.90
32534;DHT22;18973;48.580;8.912;2022-09-16T01:45:27;13.90;99.90
32534;DHT22;18973;48.580;8.912;2022-09-16T01:53:17;14.10;99.90
32534;DHT22;18973;48.580;8.912;2022-09-16T01:55:50;14.10;99.90
32534;DHT22;18973;48.580;8.912;2022-09-16T01:58:27;14.10;99.90
32534;DHT22;18973;48.580;8.912;2022-09-16T02:01:03;14.10;99.90
32534;DHT22;18973;48.580;8.912;2022-09-16T02:03:35;13.90;99.90
32534;DHT22;18973;48.580;8.912;2022-09-16T02:06:05;14.00;99.90
32534;DHT22;18973;48.580;8.912;2022-09-16T02:11:05;14.00;99.90
32534;DHT22;18973;48.580;8.912;2022-09-16T02:13:40;14.10;99.90
32534;DHT22;18973;48.580;8.912;2022-09-16T02:16:13;14.00;99.90
32534;DHT22;18973;48.580;8.912;2022-09-16T02:18:42;13.70;99.90
32534;DHT22;18973;48.580;8.912;2022-09-16T02:21:15;13.80;99.90
32534;DHT22;18973;48.580;8.912;2022-09-16T02:23:46;13.90;99.90
32534;DHT22;18973;48.580;8.912;2022-09-16T02:26:17;14.00;99.90
32534;DHT22;18973;48.580;8.912;2022-09-16T02:28:47;13.80;99.90
32534;DHT22;18973;48.580;8.912;2022-09-16T02:31:18;13.60;99.90
32534;DHT22;18973;48.580;8.912;2022-09-16T02:33:55;13.60;99.90
32534;DHT22;18973;48.580;8.912;2022-09-16T02:36:22;13.60;99.90
32534;DHT22;18973;48.580;8.912;2022-09-16T02:38:56;13.70;99.90
32534;DHT22;18973;48.580;8.912;2022-09-16T02:41:25;13.70;99.90
32534;DHT22;18973;48.580;8.912;2022-09-16T02:43:51;13.60;99.90
32534;DHT22;18973;48.580;8.912;2022-09-16T02:51:58;13.90;99.90
32534;DHT22;18973;48.580;8.912;2022-09-16T02:57:15;13.70;99.90
32534;DHT22;18973;48.580;8.912;2022-09-16T02:59:41;13.50;99.90
32534;DHT22;18973;48.580;8.912;2022-09-16T03:02:07;13.50;99.90
32534;DHT22;18973;48.580;8.912;2022-09-16T03:04:34;13.40;99.90
32534;DHT22;18973;48.580;8.912;2022-09-16T03:07:02;13.50;99.90
32534;DHT22;18973;48.580;8.912;2022-09-16T03:09:28;13.70;99.90
32534;DHT22;18973;48.580;8.912;2022-09-16T03:20:10;14.00;99.90
32534;DHT22;18973;48.580;8.912;2022-09-16T03:28:01;14.00;99.90
32534;DHT22;18973;48.580;8.912;2022-09-16T03:30:31;14.00;99.90
32534;DHT22;18973;48.580;8.912;2022-09-16T03:33:04;14.00;99.90
32534;DHT22;18973;48.580;8.912;2022-09-16T03:35:37;14.00;99.90
32534;DHT22;18973;48.580;8.912;2022-09-16T03:38:06;14.00;99.90
32534;DHT22;18973;48.580;8.912;2022-09-16T03:40:33;14.00;99.90
32534;DHT22;18973;48.580;8.912;2022-09-16T03:42:59;13.90;99.90
32534;DHT22;18973;48.580;8.912;2022-09-16T03:45:25;13.80;99.90
32534;DHT22;18973;48.580;8.912;2022-09-16T03:47:52;13.80;99.90
32534;DHT22;18973;48.580;8.912;2022-09-16T03:50:18;13.80;99.90
32534;DHT22;18973;48.580;8.912;2022-09-16T03:52:45;13.80;99.90
32534;DHT22;18973;48.580;8.912;2022-09-16T03:55:10;13.80;99.90
32534;DHT22;18973;48.580;8.912;2022-09-16T03:57:37;13.80;99.90
32534;DHT22;18973;48.580;8.912;2022-09-16T04:00:06;13.90;99.90
32534;DHT22;18973;48.580;8.912;2022-09-16T04:02:33;13.90;99.90
32534;DHT22;18973;48.580;8.912;2022-09-16T04:04:58;13.80;99.90
32534;DHT22;18973;48.580;8.912;2022-09-16T04:07:24;13.90;99.90
32534;DHT22;18973;48.580;8.912;2022-09-16T04:09:50;13.80;99.90
32534;DHT22;18973;48.580;8.912;2022-09-16T04:12:15;13.90;99.90
32534;DHT22;18973;48.580;8.912;2022-09-16T04:14:41;13.80;99.90
32534;DHT22;18973;48.580;8.912;2022-09-16T04:17:07;13.80;99.90
32534;DHT22;18973;48.580;8.912;2022-09-16T04:19:32;13.80;99.90
32534;DHT22;18973;48.580;8.912;2022-09-16T04:21:58;13.80;99.90
32534;DHT22;18973;48.580;8.912;2022-09-16T04:24:24;13.90;99.90
32534;DHT22;18973;48.580;8.912;2022-09-16T04:26:49;13.70;99.90
32534;DHT22;18973;48.580;8.912;2022-09-16T04:29:15;13.60;99.90
32534;DHT22;18973;48.580;8.912;2022-09-16T04:31:42;13.60;99.90
32534;DHT22;18973;48.580;8.912;2022-09-16T04:34:08;13.60;99.90
32534;DHT22;18973;48.580;8.912;2022-09-16T04:36:36;13.60;99.90
32534;DHT22;18973;48.580;8.912;2022-09-16T04:39:02;13.60;99.90
32534;DHT22;18973;48.580;8.912;2022-09-16T04:41:28;13.70;99.90
32534;DHT22;18973;48.580;8.912;2022-09-16T04:43:58;13.80;99.90
32534;DHT22;18973;48.580;8.912;2022-09-16T04:46:26;13.90;99.90
32534;DHT22;18973;48.580;8.912;2022-09-16T04:48:53;13.90;99.90
32534;DHT22;18973;48.580;8.912;2022-09-16T04:51:20;14.00;99.90
32534;DHT22;18973;48.580;8.912;2022-09-16T04:53:54;14.00;99.90
32534;DHT22;18973;48.580;8.912;2022-09-16T04:56:23;14.00;99.90
32534;DHT22;18973;48.580;8.912;2022-09-16T04:58:51;14.10;99.90
32534;DHT22;18973;48.580;8.912;2022-09-16T05:01:24;14.10;99.90
32534;DHT22;18973;48.580;8.912;2022-09-16T05:03:53;14.20;99.90
32534;DHT22;18973;48.580;8.912;2022-09-16T05:06:22;14.20;99.90
32534;DHT22;18973;48.580;8.912;2022-09-16T05:08:49;14.20;99.90
32534;DHT22;18973;48.580;8.912;2022-09-16T05:11:22;14.20;99.90
32534;DHT22;18973;48.580;8.912;2022-09-16T05:13:48;14.20;99.90
32534;DHT22;18973;48.580;8.912;2022-09-16T05:16:19;14.30;99.90
32534;DHT22;18973;48.580;8.912;2022-09-16T05:18:47;14.30;99.90
32534;DHT22;18973;48.580;8.912;2022-09-16T05:21:15;14.30;99.90
32534;DHT22;18973;48.580;8.912;2022-09-16T05:23:41;14.30;99.90
32534;DHT22;18973;48.580;8.912;2022-09-16T05:26:10;14.20;99.90
32534;DHT22;18973;48.580;8.912;2022-09-16T05:28:37;14.20;99.90
32534;DHT22;18973;48.580;8.912;2022-09-16T05:33:37;14.20;99.90
32534;DHT22;18973;48.580;8.912;2022-09-16T05:36:08;14.20;99.90
32534;DHT22;18973;48.580;8.912;2022-09-16T05:38:34;14.20;99.90
32534;DHT22;18973;48.580;8.912;2022-09-16T05:41:01;14.20;99.90
32534;DHT22;18973;48.580;8.912;2022-09-16T05:43:27;14.10;99.90
32534;DHT22;18973;48.580;8.912;2022-09-16T05:45:54;13.90;99.90
32534;DHT22;18973;48.580;8.912;2022-09-16T05:48:20;14.00;99.90
32534;DHT22;18973;48.580;8.912;2022-09-16T05:50:54;14.00;99.90
32534;DHT22;18973;48.580;8.912;2022-09-16T05:53:20;13.90;99.90
32534;DHT22;18973;48.580;8.912;2022-09-16T05:56:06;14.00;99.90
32534;DHT22;18973;48.580;8.912;2022-09-16T05:58:34;14.00;99.90
32534;DHT22;18973;48.580;8.912;2022-09-16T06:01:04;14.10;99.90
32534;DHT22;18973;48.580;8.912;2022-09-16T06:03:32;14.10;99.90
32534;DHT22;18973;48.580;8.912;2022-09-16T06:08:35;14.00;99.90
32534;DHT22;18973;48.580;8.912;2022-09-16T06:11:06;14.00;99.90
32534;DHT22;18973;48.580;8.912;2022-09-16T06:13:32;14.00;99.90
32534;DHT22;18973;48.580;8.912;2022-09-16T06:15:59;14.00;99.90
32534;DHT22;18973;48.580;8.912;2022-09-16T06:18:26;14.10;99.90
32534;DHT22;18973;48.580;8.912;2022-09-16T06:20:53;14.00;99.90
32534;DHT22;18973;48.580;8.912;2022-09-16T06:23:19;14.00;99.90
32534;DHT22;18973;48.580;8.912;2022-09-16T06:25:45;14.00;99.90
32534;DHT22;18973;48.580;8.912;2022-09-16T06:28:11;14.00;99.90
32534;DHT22;18973;48.580;8.912;2022-09-16T06:30:40;14.00;99.90
32534;DHT22;18973;48.580;8.912;2022-09-16T06:33:06;13.80;99.90
32534;DHT22;18973;48.580;8.912;2022-09-16T06:35:34;13.70;99.90
32534;DHT22;18973;48.580;8.912;2022-09-16T06:38:00;13.80;99.90
32534;DHT22;18973;48.580;8.912;2022-09-16T06:40:26;13.70;99.90
32534;DHT22;18973;48.580;8.912;2022-09-16T06:42:53;13.70;99.90
32534;DHT22;18973;48.580;8.912;2022-09-16T06:45:22;13.70;99.90
32534;DHT22;18973;48.580;8.912;2022-09-16T06:47:48;13.60;99.90
32534;DHT22;18973;48.580;8.912;2022-09-16T06:50:13;13.50;99.90
32534;DHT22;18973;48.580;8.912;2022-09-16T06:52:39;13.50;99.90
32534;DHT22;18973;48.580;8.912;2022-09-16T06:55:05;13.60;99.90
32534;DHT22;18973;48.580;8.912;2022-09-16T06:57:31;13.50;99.90
32534;DHT22;18973;48.580;8.912;2022-09-16T06:59:56;13.60;99.90
32534;DHT22;18973;48.580;8.912;2022-09-16T07:02:22;13.50;99.90
32534;DHT22;18973;48.580;8.912;2022-09-16T07:04:48;13.50;99.90
32534;DHT22;18973;48.580;8.912;2022-09-16T07:07:14;13.40;99.90
32534;DHT22;18973;48.580;8.912;2022-09-16T07:09:39;13.30;99.90
32534;DHT22;18973;48.580;8.912;2022-09-16T07:12:06;13.30;99.90
32534;DHT22;18973;48.580;8.912;2022-09-16T07:14:31;13.40;99.90
32534;DHT22;18973;48.580;8.912;2022-09-16T07:16:58;13.40;99.90
32534;DHT22;18973;48.580;8.912;2022-09-16T07:19:25;13.40;99.90
32534;DHT22;18973;48.580;8.912;2022-09-16T07:21:50;13.50;99.90
32534;DHT22;18973;48.580;8.912;2022-09-16T07:24:16;13.40;99.90
32534;DHT22;18973;48.580;8.912;2022-09-16T07:26:43;13.40;99.90
32534;DHT22;18973;48.580;8.912;2022-09-16T07:29:12;13.40;99.90
32534;DHT22;18973;48.580;8.912;2022-09-16T07:31:38;13.40;99.90
32534;DHT22;18973;48.580;8.912;2022-09-16T07:34:06;13.40;99.90
32534;DHT22;18973;48.580;8.912;2022-09-16T07:36:38;13.50;99.90
32534;DHT22;18973;48.580;8.912;2022-09-16T07:39:05;13.50;99.90
32534;DHT22;18973;48.580;8.912;2022-09-16T07:41:39;13.40;99.90
32534;DHT22;18973;48.580;8.912;2022-09-16T07:44:06;13.40;99.90
32534;DHT22;18973;48.580;8.912;2022-09-16T07:46:34;13.40;99.90
32534;DHT22;18973;48.580;8.912;2022-09-16T07:49:01;13.40;99.90
32534;DHT22;18973;48.580;8.912;2022-09-16T07:51:28;13.50;99.90
32534;DHT22;18973;48.580;8.912;2022-09-16T07:54:02;13.60;99.90
32534;DHT22;18973;48.580;8.912;2022-09-16T07:56:31;13.50;99.90
32534;DHT22;18973;48.580;8.912;2022-09-16T07:58:59;13.40;99.90
32534;DHT22;18973;48.580;8.912;2022-09-16T08:01:25;13.50;99.90
32534;DHT22;18973;48.580;8.912;2022-09-16T08:03:52;13.50;99.90
32534;DHT22;18973;48.580;8.912;2022-09-16T08:06:23;13.50;99.90
32534;DHT22;18973;48.580;8.912;2022-09-16T08:08:54;13.50;99.90
32534;DHT22;18973;48.580;8.912;2022-09-16T08:11:21;13.50;99.90
32534;DHT22;18973;48.580;8.912;2022-09-16T08:13:47;13.40;99.90
32534;DHT22;18973;48.580;8.912;2022-09-16T08:16:15;13.30;99.90
32534;DHT22;18973;48.580;8.912;2022-09-16T08:18:41;13.40;99.90
32534;DHT22;18973;48.580;8.912;2022-09-16T08:21:10;13.40;99.90
32534;DHT22;18973;48.580;8.912;2022-09-16T08:23:37;13.30;99.90
32534;DHT22;18973;48.580;8.912;2022-09-16T08:26:04;13.40;99.90
32534;DHT22;18973;48.580;8.912;2022-09-16T08:28:31;13.40;99.90
32534;DHT22;18973;48.580;8.912;2022-09-16T08:31:00;13.40;99.90
32534;DHT22;18973;48.580;8.912;2022-09-16T08:33:27;13.50;99.90
32534;DHT22;18973;48.580;8.912;2022-09-16T08:36:10;13.60;99.90
32534;DHT22;18973;48.580;8.912;2022-09-16T08:38:36;13.70;99.90
32534;DHT22;18973;48.580;8.912;2022-09-16T08:43:41;13.80;99.90
32534;DHT22;18973;48.580;8.912;2022-09-16T08:46:24;13.80;99.90
32534;DHT22;18973;48.580;8.912;2022-09-16T08:51:54;13.90;99.90
32534;DHT22;18973;48.580;8.912;2022-09-16T08:57:13;14.00;99.90
32534;DHT22;18973;48.580;8.912;2022-09-16T08:59:43;14.00;99.90
32534;DHT22;18973;48.580;8.912;2022-09-16T09:02:30;14.00;99.90
32534;DHT22;18973;48.580;8.912;2022-09-16T09:04:58;14.00;99.90
32534;DHT22;18973;48.580;8.912;2022-09-16T09:07:49;14.20;99.90
32534;DHT22;18973;48.580;8.912;2022-09-16T09:13:20;14.10;99.90
32534;DHT22;18973;48.580;8.912;2022-09-16T09:16:02;14.10;99.90
32534;DHT22;18973;48.580;8.912;2022-09-16T09:18:50;14.00;99.90
32534;DHT22;18973;48.580;8.912;2022-09-16T09:21:30;14.00;99.90
32534;DHT22;18973;48.580;8.912;2022-09-16T09:24:34;14.00;99.90
32534;DHT22;18973;48.580;8.912;2022-09-16T09:27:23;13.90;99.90
32534;DHT22;18973;48.580;8.912;2022-09-16T09:36:22;14.00;99.90
32534;DHT22;18973;48.580;8.912;2022-09-16T09:38:37;14.00;99.90
32534;DHT22;18973;48.580;8.912;2022-09-16T09:41:10;14.00;99.90
32534;DHT22;18973;48.580;8.912;2022-09-16T09:43:44;14.00;99.90
32534;DHT22;18973;48.580;8.912;2022-09-16T09:51:35;14.00;99.90
32534;DHT22;18973;48.580;8.912;2022-09-16T09:54:26;13.90;99.90
32534;DHT22;18973;48.580;8.912;2022-09-16T09:57:01;13.90;99.90
32534;DHT22;18973;48.580;8.912;2022-09-16T10:02:12;14.10;99.90
32534;DHT22;18973;48.580;8.912;2022-09-16T10:04:38;14.20;99.90
32534;DHT22;18973;48.580;8.912;2022-09-16T10:07:04;14.40;99.90
32534;DHT22;18973;48.580;8.912;2022-09-16T10:09:32;14.50;99.90
32534;DHT22;18973;48.580;8.912;2022-09-16T10:11:58;14.60;99.90
32534;DHT22;18973;48.580;8.912;2022-09-16T10:14:30;14.50;99.90
32534;DHT22;18973;48.580;8.912;2022-09-16T10:17:00;14.40;99.90
32534;DHT22;18973;48.580;8.912;2022-09-16T10:19:28;14.40;99.90
32534;DHT22;18973;48.580;8.912;2022-09-16T10:22:08;14.40;99.90
32534;DHT22;18973;48.580;8.912;2022-09-16T10:24:36;14.50;99.90
32534;DHT22;18973;48.580;8.912;2022-09-16T10:29:47;14.50;99.90
32534;DHT22;18973;48.580;8.912;2022-09-16T10:32:17;14.50;99.90
32534;DHT22;18973;48.580;8.912;2022-09-16T10:34:45;14.50;99.90
32534;DHT22;18973;48.580;8.912;2022-09-16T10:39:49;14.60;99.90
32534;DHT22;18973;48.580;8.912;2022-09-16T10:42:19;14.70;99.90
32534;DHT22;18973;48.580;8.912;2022-09-16T10:44:45;14.70;99.90
32534;DHT22;18973;48.580;8.912;2022-09-16T10:47:30;14.80;99.90
32534;DHT22;18973;48.580;8.912;2022-09-16T10:49:58;14.90;99.90
32534;DHT22;18973;48.580;8.912;2022-09-16T10:52:40;14.90;99.90
32534;DHT22;18973;48.580;8.912;2022-09-16T10:55:30;14.90;99.90
32534;DHT22;18973;48.580;8.912;2022-09-16T10:58:17;14.90;99.90
32534;DHT22;18973;48.580;8.912;2022-09-16T11:12:30;15.10;99.90
32534;DHT22;18973;48.580;8.912;2022-09-16T11:17:30;17.00;99.90
32534;DHT22;18973;48.580;8.912;2022-09-16T11:29:05;17.00;99.90
32534;DHT22;18973;48.580;8.912;2022-09-16T11:37:36;16.00;99.90
32534;DHT22;18973;48.580;8.912;2022-09-16T11:57:12;15.70;99.90
32534;DHT22;18973;48.580;8.912;2022-09-16T11:59:55;15.60;99.90
32534;DHT22;18973;48.580;8.912;2022-09-16T12:05:32;15.70;99.90
32534;DHT22;18973;48.580;8.912;2022-09-16T12:08:27;15.80;99.90
32534;DHT22;18973;48.580;8.912;2022-09-16T12:11:19;15.80;99.90
32534;DHT22;18973;48.580;8.912;2022-09-16T12:13:57;15.80;99.90
32534;DHT22;18973;48.580;8.912;2022-09-16T12:16:54;15.80;99.90
32534;DHT22;18973;48.580;8.912;2022-09-16T12:19:28;15.90;99.90
32534;DHT22;18973;48.580;8.912;2022-09-16T12:22:04;15.80;99.90
32534;DHT22;18973;48.580;8.912;2022-09-16T12:28:24;15.70;99.90
32534;DHT22;18973;48.580;8.912;2022-09-16T12:31:14;15.70;99.90
32534;DHT22;18973;48.580;8.912;2022-09-16T12:33:57;15.70;99.90
32534;DHT22;18973;48.580;8.912;2022-09-16T12:36:28;15.60;99.90
32534;DHT22;18973;48.580;8.912;2022-09-16T12:38:58;15.50;99.90
32534;DHT22;18973;48.580;8.912;2022-09-16T12:53:12;15.80;99.90
32534;DHT22;18973;48.580;8.912;2022-09-16T12:55:45;15.70;99.90
32534;DHT22;18973;48.580;8.912;2022-09-16T12:58:47;15.70;99.90
32534;DHT22;18973;48.580;8.912;2022-09-16T13:03:56;15.60;99.90
32534;DHT22;18973;48.580;8.912;2022-09-16T13:06:30;15.70;99.90
32534;DHT22;18973;48.580;8.912;2022-09-16T13:09:19;15.80;99.90
32534;DHT22;18973;48.580;8.912;2022-09-16T13:11:55;15.90;99.90
32534;DHT22;18973;48.580;8.912;2022-09-16T13:14:29;16.00;99.90
32534;DHT22;18973;48.580;8.912;2022-09-16T13:16:58;16.20;99.90
32534;DHT22;18973;48.580;8.912;2022-09-16T13:22:29;16.70;99.90
32534;DHT22;18973;48.580;8.912;2022-09-16T13:28:34;17.10;99.90
32534;DHT22;18973;48.580;8.912;2022-09-16T13:34:01;17.30;99.90
32534;DHT22;18973;48.580;8.912;2022-09-16T13:36:28;17.30;99.90
32534;DHT22;18973;48.580;8.912;2022-09-16T13:39:00;17.30;99.90
32534;DHT22;18973;48.580;8.912;2022-09-16T13:41:33;17.20;99.90
32534;DHT22;18973;48.580;8.912;2022-09-16T13:44:00;17.20;99.90
32534;DHT22;18973;48.580;8.912;2022-09-16T13:51:37;17.70;99.90
32534;DHT22;18973;48.580;8.912;2022-09-16T13:54:03;17.80;99.90
32534;DHT22;18973;48.580;8.912;2022-09-16T14:01:54;17.60;99.90
32534;DHT22;18973;48.580;8.912;2022-09-16T14:13:16;17.90;99.90
32534;DHT22;18973;48.580;8.912;2022-09-16T14:15:46;17.80;99.90
32534;DHT22;18973;48.580;8.912;2022-09-16T14:18:16;17.90;99.90
32534;DHT22;18973;48.580;8.912;2022-09-16T14:21:05;17.70;99.90
32534;DHT22;18973;48.580;8.912;2022-09-16T14:23:32;17.60;99.80
32534;DHT22;18973;48.580;8.912;2022-09-16T14:26:18;17.50;99.90
32534;DHT22;18973;48.580;8.912;2022-09-16T14:28:45;17.40;99.90
32534;DHT22;18973;48.580;8.912;2022-09-16T14:31:19;17.40;99.90
32534;DHT22;18973;48.580;8.912;2022-09-16T14:33:52;17.30;99.90
32534;DHT22;18973;48.580;8.912;2022-09-16T14:36:23;17.40;99.90
32534;DHT22;18973;48.580;8.912;2022-09-16T14:39:01;17.40;99.90
32534;DHT22;18973;48.580;8.912;2022-09-16T14:41:34;17.50;99.90
32534;DHT22;18973;48.580;8.912;2022-09-16T14:47:23;17.50;99.90
32534;DHT22;18973;48.580;8.912;2022-09-16T14:49:55;17.60;99.90
32534;DHT22;18973;48.580;8.912;2022-09-16T14:52:25;17.60;99.90
32534;DHT22;18973;48.580;8.912;2022-09-16T14:54:51;17.40;99.40
32534;DHT22;18973;48.580;8.912;2022-09-16T14:57:21;17.30;99.90
32534;DHT22;18973;48.580;8.912;2022-09-16T14:59:49;17.30;98.60
32534;DHT22;18973;48.580;8.912;2022-09-16T15:02:24;17.30;99.90
32534;DHT22;18973;48.580;8.912;2022-09-16T15:05:36;17.20;99.90
32534;DHT22;18973;48.580;8.912;2022-09-16T15:07:43;17.20;99.10
32534;DHT22;18973;48.580;8.912;2022-09-16T15:10:25;17.20;99.90
32534;DHT22;18973;48.580;8.912;2022-09-16T15:13:04;17.20;99.20
32534;DHT22;18973;48.580;8.912;2022-09-16T15:15:34;17.20;99.00
32534;DHT22;18973;48.580;8.912;2022-09-16T15:18:10;17.10;98.80
32534;DHT22;18973;48.580;8.912;2022-09-16T15:20:41;17.00;99.80
32534;DHT22;18973;48.580;8.912;2022-09-16T15:23:19;17.00;99.70
32534;DHT22;18973;48.580;8.912;2022-09-16T15:26:21;17.00;99.70
32534;DHT22;18973;48.580;8.912;2022-09-16T15:28:59;17.00;99.20
32534;DHT22;18973;48.580;8.912;2022-09-16T15:31:36;17.10;99.90
32534;DHT22;18973;48.580;8.912;2022-09-16T15:36:50;16.90;99.90
32534;DHT22;18973;48.580;8.912;2022-09-16T15:39:36;16.90;99.30
32534;DHT22;18973;48.580;8.912;2022-09-16T15:42:09;16.90;99.50
32534;DHT22;18973;48.580;8.912;2022-09-16T15:44:58;16.80;99.90
32534;DHT22;18973;48.580;8.912;2022-09-16T15:47:26;16.90;99.90
32534;DHT22;18973;48.580;8.912;2022-09-16T15:50:06;16.90;99.90
32534;DHT22;18973;48.580;8.912;2022-09-16T15:55:29;16.90;99.90
32534;DHT22;18973;48.580;8.912;2022-09-16T15:58:02;16.80;99.90
32534;DHT22;18973;48.580;8.912;2022-09-16T16:03:36;16.60;99.90
32534;DHT22;18973;48.580;8.912;2022-09-16T16:06:10;16.60;99.90
32534;DHT22;18973;48.580;8.912;2022-09-16T16:08:47;16.60;99.90
32534;DHT22;18973;48.580;8.912;2022-09-16T16:11:18;16.60;99.90
32534;DHT22;18973;48.580;8.912;2022-09-16T16:13:45;16.50;99.60
32534;DHT22;18973;48.580;8.912;2022-09-16T16:16:13;16.50;99.90
32534;DHT22;18973;48.580;8.912;2022-09-16T16:18:41;16.60;99.80
32534;DHT22;18973;48.580;8.912;2022-09-16T16:21:08;16.60;99.90
32534;DHT22;18973;48.580;8.912;2022-09-16T16:23:35;16.60;99.90
32534;DHT22;18973;48.580;8.912;2022-09-16T16:26:05;16.60;99.90
32534;DHT22;18973;48.580;8.912;2022-09-16T16:28:32;16.40;99.90
32534;DHT22;18973;48.580;8.912;2022-09-16T16:31:15;16.40;99.90
32534;DHT22;18973;48.580;8.912;2022-09-16T16:33:43;16.20;99.90
32534;DHT22;18973;48.580;8.912;2022-09-16T16:36:13;16.20;99.90
32534;DHT22;18973;48.580;8.912;2022-09-16T16:38:38;16.10;99.90
32534;DHT22;18973;48.580;8.912;2022-09-16T16:41:05;16.00;99.90
32534;DHT22;18973;48.580;8.912;2022-09-16T16:43:32;16.00;99.90
32534;DHT22;18973;48.580;8.912;2022-09-16T16:45:58;16.10;99.90
32534;DHT22;18973;48.580;8.912;2022-09-16T16:48:25;16.10;99.90
32534;DHT22;18973;48.580;8.912;2022-09-16T16:51:03;16.00;99.90
32534;DHT22;18973;48.580;8.912;2022-09-16T16:53:30;16.10;99.90
32534;DHT22;18973;48.580;8.912;2022-09-16T16:56:07;16.00;99.90
32534;DHT22;18973;48.580;8.912;2022-09-16T16:58:35;16.00;99.90
32534;DHT22;18973;48.580;8.912;2022-09-16T17:01:12;15.90;99.90
32534;DHT22;18973;48.580;8.912;2022-09-16T17:03:39;16.00;99.90
32534;DHT22;18973;48.580;8.912;2022-09-16T17:06:06;16.00;99.90
32534;DHT22;18973;48.580;8.912;2022-09-16T17:08:32;15.90;99.90
32534;DHT22;18973;48.580;8.912;2022-09-16T17:11:15;15.90;99.90
32534;DHT22;18973;48.580;8.912;2022-09-16T17:13:43;15.80;99.90
32534;DHT22;18973;48.580;8.912;2022-09-16T17:16:11;15.80;99.90
32534;DHT22;18973;48.580;8.912;2022-09-16T17:18:39;15.70;99.90
32534;DHT22;18973;48.580;8.912;2022-09-16T17:21:07;15.70;99.90
32534;DHT22;18973;48.580;8.912;2022-09-16T17:23:33;15.60;99.90
32534;DHT22;18973;48.580;8.912;2022-09-16T17:26:01;15.60;99.90
32534;DHT22;18973;48.580;8.912;2022-09-16T17:28:27;15.60;99.90
32534;DHT22;18973;48.580;8.912;2022-09-16T17:30:53;15.50;99.90
32534;DHT22;18973;48.580;8.912;2022-09-16T17:33:19;15.50;99.90
32534;DHT22;18973;48.580;8.912;2022-09-16T17:35:44;15.40;99.90
32534;DHT22;18973;48.580;8.912;2022-09-16T17:38:12;15.40;99.90
32534;DHT22;18973;48.580;8.912;2022-09-16T17:40:37;15.30;99.90
32534;DHT22;18973;48.580;8.912;2022-09-16T17:43:04;15.30;99.90
32534;DHT22;18973;48.580;8.912;2022-09-16T17:45:31;15.20;99.90
32534;DHT22;18973;48.580;8.912;2022-09-16T17:47:57;15.20;99.90
32534;DHT22;18973;48.580;8.912;2022-09-16T17:50:23;15.10;99.90
32534;DHT22;18973;48.580;8.912;2022-09-16T17:52:49;15.50;99.90
32534;DHT22;18973;48.580;8.912;2022-09-16T17:55:15;16.30;99.90
32534;DHT22;18973;48.580;8.912;2022-09-16T17:57:41;16.80;99.90
32534;DHT22;18973;48.580;8.912;2022-09-16T18:00:07;17.20;99.90
32534;DHT22;18973;48.580;8.912;2022-09-16T18:02:34;17.40;99.90
32534;DHT22;18973;48.580;8.912;2022-09-16T18:05:00;17.10;99.90
32534;DHT22;18973;48.580;8.912;2022-09-16T18:07:26;16.70;99.90
32534;DHT22;18973;48.580;8.912;2022-09-16T18:09:51;16.40;99.90
32534;DHT22;18973;48.580;8.912;2022-09-16T18:12:17;16.00;99.90
32534;DHT22;18973;48.580;8.912;2022-09-16T18:14:43;15.80;99.90
32534;DHT22;18973;48.580;8.912;2022-09-16T18:17:08;15.50;99.90
32534;DHT22;18973;48.580;8.912;2022-09-16T18:19:34;15.40;99.90
32534;DHT22;18973;48.580;8.912;2022-09-16T18:22:00;15.30;99.90
32534;DHT22;18973;48.580;8.912;2022-09-16T18:24:26;15.20;99.90
32534;DHT22;18973;48.580;8.912;2022-09-16T18:26:51;15.10;99.90
32534;DHT22;18973;48.580;8.912;2022-09-16T18:29:17;15.00;99.90
32534;DHT22;18973;48.580;8.912;2022-09-16T18:31:47;15.00;99.90
32534;DHT22;18973;48.580;8.912;2022-09-16T18:34:14;15.00;99.90
32534;DHT22;18973;48.580;8.912;2022-09-16T18:36:41;15.00;99.90
32534;DHT22;18973;48.580;8.912;2022-09-16T18:39:10;14.90;99.90
32534;DHT22;18973;48.580;8.912;2022-09-16T18:41:38;15.00;99.90
32534;DHT22;18973;48.580;8.912;2022-09-16T18:44:26;14.90;99.90
32534;DHT22;18973;48.580;8.912;2022-09-16T18:46:52;14.90;99.90
32534;DHT22;18973;48.580;8.912;2022-09-16T18:49:19;14.80;99.90
32534;DHT22;18973;48.580;8.912;2022-09-16T18:51:51;14.70;99.90
32534;DHT22;18973;48.580;8.912;2022-09-16T18:54:27;14.70;99.90
32534;DHT22;18973;48.580;8.912;2022-09-16T18:56:55;14.70;99.90
32534;DHT22;18973;48.580;8.912;2022-09-16T18:59:22;14.60;99.90
32534;DHT22;18973;48.580;8.912;2022-09-16T19:01:50;14.60;99.90
32534;DHT22;18973;48.580;8.912;2022-09-16T19:04:17;14.60;99.90
32534;DHT22;18973;48.580;8.912;2022-09-16T19:06:48;14.60;99.90